Time;durP1;ratioP1;P1;durP2;ratioP2;P2;SDS_P1;SDS_P2;PMS_P1;PMS_P2;Temp;Humidity;BMP_temperature;BMP_pressure;BME280_temperature;BME280_humidity;BME280_pressure;Samples;Min_cycle;Max_cycle;Signal;HPM_P1;HPM_P2
2023/06/13 00:00:59;;;;;;;5.20;4.60;;;;;;;22.17;32.77;96854.97;4755806;29;20495;-78
2023/06/13 00:03:26;;;;;;;4.95;4.32;;;;;;;22.14;32.67;96855.63;4773750;29;20233;-78
2023/06/13 00:05:54;;;;;;;5.35;4.30;;;;;;;22.13;32.83;96848.78;4768649;29;20289;-78
2023/06/13 00:08:21;;;;;;;4.90;4.50;;;;;;;22.04;32.88;96845.44;4772455;29;20384;-77
2023/06/13 00:10:50;;;;;;;5.25;4.75;;;;;;;22.16;32.82;96855.31;4775154;29;20343;-78
2023/06/13 00:13:17;;;;;;;4.88;4.47;;;;;;;22.04;32.11;96840.13;4779744;29;20245;-78
2023/06/13 00:15:51;;;;;;;6.65;4.60;;;;;;;22.24;32.69;96834.00;4750666;29;20252;-80
2023/06/13 00:18:22;;;;;;;5.22;4.72;;;;;;;22.28;33.13;96846.63;4733700;29;20362;-77
2023/06/13 00:20:48;;;;;;;4.78;4.10;;;;;;;22.20;32.52;96849.00;4754133;29;20354;-76
2023/06/13 00:23:15;;;;;;;5.40;4.15;;;;;;;22.11;32.48;96850.97;4787262;29;20535;-78
2023/06/13 00:25:40;;;;;;;4.57;4.07;;;;;;;22.08;32.43;96838.38;4771157;29;20400;-77
2023/06/13 00:28:06;;;;;;;4.45;4.05;;;;;;;22.05;32.69;96841.66;4770748;29;20204;-77
2023/06/13 00:30:31;;;;;;;4.63;4.22;;;;;;;22.08;32.29;96836.50;4767355;29;20272;-78
2023/06/13 00:32:57;;;;;;;4.75;4.35;;;;;;;22.14;32.65;96844.25;4768888;29;20454;-78
2023/06/13 00:35:23;;;;;;;3.92;3.63;;;;;;;22.08;32.95;96846.34;4788036;29;20193;-77
2023/06/13 00:37:50;;;;;;;6.13;4.85;;;;;;;21.96;32.87;96835.69;4749288;29;20345;-77
2023/06/13 00:40:17;;;;;;;4.85;4.45;;;;;;;21.98;32.72;96846.75;4756476;29;20289;-77
2023/06/13 00:42:43;;;;;;;4.63;4.22;;;;;;;21.92;32.90;96829.47;4758571;29;20267;-78
2023/06/13 00:45:24;;;;;;;6.22;4.13;;;;;;;21.99;33.13;96840.34;4743016;29;20113;-77
2023/06/13 00:48:09;;;;;;;5.78;4.10;;;;;;;22.01;32.71;96832.84;4774569;29;20181;-77
2023/06/13 00:50:40;;;;;;;4.53;3.78;;;;;;;21.90;32.60;96821.88;4748354;29;20200;-77
2023/06/13 00:53:11;;;;;;;4.30;3.90;;;;;;;21.99;33.02;96837.69;4745210;29;20215;-77
2023/06/13 00:55:37;;;;;;;4.90;4.25;;;;;;;21.95;32.94;96828.81;4763913;29;20218;-77
2023/06/13 00:58:10;;;;;;;4.57;4.13;;;;;;;21.90;33.06;96840.44;4756346;29;20240;-77
2023/06/13 01:00:39;;;;;;;6.38;4.00;;;;;;;21.99;32.55;96837.69;4756175;29;20220;-77
2023/06/13 01:03:15;;;;;;;4.53;3.85;;;;;;;21.81;33.29;96832.53;4832610;23;20188;-78
2023/06/13 01:05:41;;;;;;;4.70;3.95;;;;;;;21.87;32.85;96833.88;4774352;29;20374;-79
2023/06/13 01:08:12;;;;;;;4.57;4.00;;;;;;;21.85;33.25;96832.69;4778894;29;20337;-79
2023/06/13 01:10:40;;;;;;;4.55;4.15;;;;;;;21.69;33.55;96832.50;4771310;29;20137;-79
2023/06/13 01:13:24;;;;;;;4.30;3.90;;;;;;;21.75;33.55;96836.50;4792448;29;20034;-78
2023/06/13 01:16:28;;;;;;;4.35;3.90;;;;;;;21.60;33.44;96837.09;4807862;29;20087;-79
2023/06/13 01:18:54;;;;;;;4.28;3.92;;;;;;;21.53;33.70;96832.31;4758214;29;20046;-79
2023/06/13 01:21:21;;;;;;;4.20;3.70;;;;;;;21.53;33.68;96831.56;4762792;29;20160;-79
2023/06/13 01:23:53;;;;;;;5.07;3.90;;;;;;;21.59;33.76;96833.69;4796524;29;20025;-78
2023/06/13 01:26:34;;;;;;;4.97;4.38;;;;;;;21.61;33.82;96834.13;4794177;29;20041;-79
2023/06/13 01:29:00;;;;;;;4.40;3.90;;;;;;;21.46;33.93;96829.38;4800777;29;20036;-80
2023/06/13 01:31:26;;;;;;;4.93;4.40;;;;;;;21.33;34.19;96823.25;4769707;29;20341;-78
2023/06/13 01:33:51;;;;;;;4.47;3.92;;;;;;;21.40;34.11;96823.50;4784778;29;20080;-79
2023/06/13 01:36:17;;;;;;;4.10;3.65;;;;;;;21.37;33.83;96828.66;4767371;29;22380;-79
2023/06/13 01:38:43;;;;;;;6.18;4.20;;;;;;;21.35;34.01;96825.56;4790570;29;21837;-77
2023/06/13 01:41:08;;;;;;;5.57;3.85;;;;;;;21.29;34.13;96822.34;4776670;29;20040;-79
2023/06/13 01:43:34;;;;;;;5.30;3.90;;;;;;;21.11;34.60;96821.66;4785822;29;20757;-79
2023/06/13 01:46:10;;;;;;;4.68;4.18;;;;;;;21.07;34.39;96826.84;4784292;29;20417;-79
2023/06/13 01:48:47;;;;;;;6.18;3.85;;;;;;;21.04;35.05;96824.84;4787327;29;20029;-78
2023/06/13 01:51:23;;;;;;;4.20;3.80;;;;;;;21.14;34.47;96819.16;4794718;29;20120;-79
2023/06/13 01:53:54;;;;;;;5.20;3.97;;;;;;;21.11;34.23;96808.44;4805232;29;20060;-78
2023/06/13 01:56:22;;;;;;;4.13;3.60;;;;;;;21.06;34.70;96808.63;4768139;29;20157;-79
2023/06/13 01:59:00;;;;;;;4.07;3.67;;;;;;;21.15;34.54;96809.34;4780445;29;20033;-79
2023/06/13 02:01:26;;;;;;;4.57;3.97;;;;;;;21.00;34.41;96813.34;4794371;29;20041;-77
2023/06/13 02:03:53;;;;;;;4.78;3.67;;;;;;;21.06;34.19;96811.25;4797561;29;20213;-79
2023/06/13 02:06:18;;;;;;;4.05;3.70;;;;;;;20.98;35.32;96810.25;4778023;29;20044;-78
2023/06/13 02:08:45;;;;;;;4.15;3.75;;;;;;;20.99;34.55;96809.16;4782623;29;20029;-79
2023/06/13 02:11:11;;;;;;;3.70;3.33;;;;;;;20.86;35.08;96796.94;4788517;29;20045;-79
2023/06/13 02:13:37;;;;;;;4.15;3.50;;;;;;;20.85;34.95;96798.00;4778699;29;20100;-79
2023/06/13 02:16:02;;;;;;;4.55;3.65;;;;;;;20.77;35.58;96804.91;4794047;29;21030;-79
2023/06/13 02:18:28;;;;;;;4.72;3.80;;;;;;;20.64;35.44;96805.91;4782264;29;20835;-79
2023/06/13 02:20:54;;;;;;;5.25;3.80;;;;;;;20.66;35.28;96807.13;4780906;29;20870;-78
2023/06/13 02:23:20;;;;;;;5.85;3.80;;;;;;;20.62;35.69;96805.44;4790302;29;20041;-78
2023/06/13 02:25:46;;;;;;;3.85;3.45;;;;;;;20.57;35.72;96801.84;4805861;29;20063;-78
2023/06/13 02:28:12;;;;;;;4.80;3.78;;;;;;;20.53;35.76;96797.53;4790299;29;20451;-78
2023/06/13 02:30:38;;;;;;;5.05;4.05;;;;;;;20.51;35.67;96800.50;4762392;29;20032;-79
2023/06/13 02:33:04;;;;;;;4.03;3.40;;;;;;;20.43;36.29;96797.88;4781247;29;20033;-78
2023/06/13 02:35:30;;;;;;;4.20;3.80;;;;;;;20.45;36.13;96803.63;4781891;29;20381;-79
2023/06/13 02:37:56;;;;;;;4.65;3.75;;;;;;;20.38;36.19;96791.66;4784715;29;20155;-79
2023/06/13 02:40:24;;;;;;;4.35;3.95;;;;;;;20.39;36.42;96793.22;4783472;29;20055;-78
2023/06/13 02:42:52;;;;;;;4.05;3.65;;;;;;;20.24;36.58;96788.47;4767438;29;20121;-78
2023/06/13 02:45:17;;;;;;;4.35;3.95;;;;;;;20.09;36.53;96788.97;4762279;29;20095;-78
2023/06/13 02:47:43;;;;;;;4.25;3.70;;;;;;;20.14;36.82;96794.88;4765727;29;20033;-78
2023/06/13 02:50:09;;;;;;;6.05;3.35;;;;;;;20.06;36.58;96794.88;4807965;29;20045;-78
2023/06/13 02:52:35;;;;;;;4.50;3.50;;;;;;;20.07;36.76;96791.16;4767910;29;20037;-78
2023/06/13 02:55:02;;;;;;;3.75;3.45;;;;;;;20.09;36.74;96794.25;4797253;29;20075;-78
2023/06/13 02:57:28;;;;;;;4.57;3.30;;;;;;;20.08;36.63;96793.47;4804611;29;20041;-79
2023/06/13 02:59:53;;;;;;;3.83;3.40;;;;;;;20.02;36.92;96786.81;4783525;29;20932;-78
2023/06/13 03:02:25;;;;;;;3.55;3.25;;;;;;;20.04;37.19;96792.56;4796737;29;20479;-78
2023/06/13 03:04:52;;;;;;;4.07;3.67;;;;;;;19.96;37.14;96791.50;4761205;29;20073;-78
2023/06/13 03:07:18;;;;;;;4.00;3.45;;;;;;;19.97;37.14;96790.41;4795716;29;20029;-79
2023/06/13 03:09:43;;;;;;;5.47;3.67;;;;;;;19.98;37.00;96786.66;4776893;29;20033;-79
2023/06/13 03:12:11;;;;;;;3.92;3.28;;;;;;;19.96;37.11;96777.50;4781499;29;20041;-78
2023/06/13 03:14:38;;;;;;;4.13;3.40;;;;;;;19.90;37.13;96792.75;4763923;29;20037;-78
2023/06/13 03:17:04;;;;;;;4.22;3.65;;;;;;;19.75;37.66;96780.78;4801268;29;20037;-78
2023/06/13 03:19:30;;;;;;;4.68;3.75;;;;;;;19.73;37.14;96779.53;4778000;29;20032;-79
2023/06/13 03:21:58;;;;;;;4.70;3.40;;;;;;;19.71;38.17;96792.28;4782670;29;20037;-78
2023/06/13 03:24:24;;;;;;;4.32;3.85;;;;;;;19.25;39.33;96784.69;4780212;29;20043;-78
2023/06/13 03:26:49;;;;;;;5.22;4.03;;;;;;;19.14;40.26;96798.47;4773688;29;20033;-78
2023/06/13 03:29:15;;;;;;;4.18;3.78;;;;;;;19.12;40.16;96803.31;4782489;29;20047;-78
2023/06/13 03:31:41;;;;;;;4.82;4.25;;;;;;;18.95;39.80;96802.19;4779906;29;20312;-78
2023/06/13 03:34:06;;;;;;;6.90;4.22;;;;;;;18.83;40.14;96805.44;4780897;29;20037;-78
2023/06/13 03:36:34;;;;;;;4.10;3.58;;;;;;;18.74;40.00;96804.59;4791836;29;20674;-78
2023/06/13 03:39:00;;;;;;;4.43;3.83;;;;;;;18.62;40.92;96807.03;4782190;29;20037;-79
2023/06/13 03:41:26;;;;;;;4.20;3.80;;;;;;;18.71;40.33;96805.19;4775614;29;20124;-79
2023/06/13 03:43:52;;;;;;;4.45;4.05;;;;;;;18.77;40.31;96808.47;4762750;29;20968;-78
2023/06/13 03:46:17;;;;;;;4.75;3.65;;;;;;;18.72;40.25;96809.41;4794671;29;20794;-78
2023/06/13 03:48:46;;;;;;;4.28;3.88;;;;;;;18.75;40.74;96813.25;4767209;29;20529;-78
2023/06/13 03:51:31;;;;;;;4.43;3.85;;;;;;;18.85;39.75;96821.72;4794131;29;20711;-78
2023/06/13 03:53:57;;;;;;;4.70;3.42;;;;;;;18.85;40.16;96818.28;4776793;29;20109;-79
2023/06/13 03:56:22;;;;;;;5.15;3.90;;;;;;;18.99;39.65;96824.25;4790045;29;20042;-79
2023/06/13 03:58:48;;;;;;;4.03;3.42;;;;;;;18.93;40.28;96816.78;4772859;29;20378;-78
2023/06/13 04:01:13;;;;;;;4.45;3.95;;;;;;;18.87;39.64;96816.91;4780575;29;20439;-78
2023/06/13 04:03:39;;;;;;;5.55;3.65;;;;;;;18.91;40.42;96822.34;4794146;29;20680;-78
2023/06/13 04:06:06;;;;;;;4.07;3.42;;;;;;;18.95;40.15;96818.00;4779211;29;20037;-78
2023/06/13 04:08:31;;;;;;;6.38;3.78;;;;;;;19.02;40.82;96826.28;4767372;29;20093;-78
2023/06/13 04:10:57;;;;;;;4.60;3.80;;;;;;;19.12;40.49;96832.31;4796958;29;20037;-78
2023/06/13 04:13:23;;;;;;;5.05;3.80;;;;;;;19.20;40.30;96834.97;4785887;29;20113;-79
2023/06/13 04:15:48;;;;;;;4.32;3.38;;;;;;;19.14;40.43;96838.06;4795668;29;20267;-77
2023/06/13 04:18:17;;;;;;;4.10;3.70;;;;;;;19.19;40.70;96836.09;4765008;29;20099;-79
2023/06/13 04:20:43;;;;;;;4.45;3.88;;;;;;;19.30;40.18;96836.56;4790367;29;20116;-79
2023/06/13 04:23:08;;;;;;;4.53;3.17;;;;;;;19.36;40.07;96837.16;4781626;29;20084;-79
2023/06/13 04:25:35;;;;;;;3.90;3.50;;;;;;;19.48;39.93;96839.97;4766603;29;20224;-79
2023/06/13 04:28:02;;;;;;;3.30;3.00;;;;;;;19.55;39.80;96848.22;4789285;29;20047;-78
2023/06/13 04:30:29;;;;;;;3.42;3.13;;;;;;;19.59;39.78;96841.22;4789147;29;20025;-78
2023/06/13 04:32:57;;;;;;;4.90;3.65;;;;;;;19.73;39.85;96846.34;4768512;29;20093;-78
2023/06/13 04:35:23;;;;;;;5.20;3.38;;;;;;;19.85;39.18;96847.63;4764222;29;20057;-78
2023/06/13 04:37:51;;;;;;;3.70;3.30;;;;;;;19.94;39.15;96856.31;4762163;29;20036;-78
2023/06/13 04:40:18;;;;;;;5.18;3.53;;;;;;;19.97;39.00;96845.88;4780611;29;20028;-79
2023/06/13 04:42:51;;;;;;;5.57;3.50;;;;;;;20.08;38.62;96848.19;4765980;29;20045;-79
2023/06/13 04:45:20;;;;;;;4.55;3.53;;;;;;;20.20;38.07;96854.41;4788756;29;20053;-79
2023/06/13 04:47:47;;;;;;;4.57;3.30;;;;;;;20.32;38.11;96855.59;4756055;29;20034;-78
2023/06/13 04:50:13;;;;;;;3.95;3.10;;;;;;;20.38;37.09;96862.28;4777573;29;20030;-80
2023/06/13 04:52:41;;;;;;;6.15;3.60;;;;;;;20.49;37.46;96860.06;4781737;29;20205;-80
2023/06/13 04:55:07;;;;;;;4.10;3.17;;;;;;;20.61;37.87;96868.13;4785399;29;20040;-79
2023/06/13 04:57:33;;;;;;;4.53;3.05;;;;;;;20.70;37.49;96855.69;4792741;29;20040;-80
2023/06/13 04:59:59;;;;;;;3.92;2.90;;;;;;;20.70;38.63;96865.47;4801539;29;20026;-79
2023/06/13 05:02:25;;;;;;;4.63;3.40;;;;;;;20.76;38.11;96861.56;4777739;29;20137;-79
2023/06/13 05:04:52;;;;;;;3.70;3.30;;;;;;;20.80;37.77;96867.00;4782636;29;20028;-78
2023/06/13 05:07:19;;;;;;;3.92;3.42;;;;;;;20.93;37.60;96880.00;4770747;29;20032;-81
2023/06/13 05:09:45;;;;;;;3.80;3.10;;;;;;;20.94;36.97;96872.84;4790176;29;20280;-79
2023/06/13 05:12:11;;;;;;;3.55;3.25;;;;;;;20.99;37.95;96883.25;4782504;29;20059;-78
2023/06/13 05:14:40;;;;;;;4.18;3.50;;;;;;;21.09;38.29;96880.22;4797307;29;20029;-79
2023/06/13 05:17:06;;;;;;;4.43;3.40;;;;;;;21.15;36.90;96883.47;4778798;29;20060;-80
2023/06/13 05:19:34;;;;;;;3.63;3.30;;;;;;;21.18;37.23;96876.75;4784092;29;20088;-78
2023/06/13 05:22:07;;;;;;;4.65;3.53;;;;;;;21.27;37.62;96875.63;4798125;29;20041;-78
2023/06/13 05:24:33;;;;;;;6.38;3.70;;;;;;;21.21;37.03;96874.25;4795182;29;20037;-79
2023/06/13 05:26:59;;;;;;;3.22;2.92;;;;;;;21.39;37.70;96882.09;4779121;29;20040;-79
2023/06/13 05:29:28;;;;;;;2.88;2.55;;;;;;;21.54;37.38;96883.41;4790799;29;20081;-79
2023/06/13 05:31:53;;;;;;;3.65;3.00;;;;;;;21.61;36.76;96887.13;4779419;29;20076;-79
2023/06/13 05:34:20;;;;;;;4.50;3.88;;;;;;;21.69;36.59;96888.13;4784936;29;20868;-79
2023/06/13 05:36:45;;;;;;;5.20;3.15;;;;;;;21.65;35.70;96882.72;4772308;29;20029;-79
2023/06/13 05:39:12;;;;;;;4.68;3.03;;;;;;;21.71;36.97;96888.59;4798223;29;20904;-79
2023/06/13 05:41:39;;;;;;;3.75;2.90;;;;;;;21.79;36.80;96881.69;4762051;29;20042;-79
2023/06/13 05:44:05;;;;;;;4.25;2.90;;;;;;;21.81;36.78;96888.19;4795490;29;20076;-80
2023/06/13 05:46:30;;;;;;;6.88;3.33;;;;;;;21.80;36.37;96880.59;4763002;29;20731;-79
2023/06/13 05:48:56;;;;;;;4.47;3.08;;;;;;;21.96;36.42;96886.06;4766809;29;20033;-79
2023/06/13 05:51:21;;;;;;;3.38;2.90;;;;;;;22.11;36.48;96893.41;4780678;29;20029;-81
2023/06/13 05:53:47;;;;;;;4.38;3.40;;;;;;;22.21;35.90;96894.88;4768043;29;20837;-79
2023/06/13 05:56:13;;;;;;;5.95;3.35;;;;;;;22.25;35.47;96896.53;4794542;29;20441;-79
2023/06/13 05:58:38;;;;;;;3.83;3.10;;;;;;;22.35;35.50;96894.63;4806752;29;20644;-79
2023/06/13 06:01:03;;;;;;;3.00;2.70;;;;;;;22.39;35.22;96884.91;4782021;29;20104;-79
2023/06/13 06:03:30;;;;;;;4.57;3.28;;;;;;;22.53;34.41;96895.97;4768455;29;20124;-79
2023/06/13 06:05:55;;;;;;;5.80;3.70;;;;;;;22.60;35.80;96896.22;4790234;29;20045;-79
2023/06/13 06:08:21;;;;;;;4.68;2.92;;;;;;;22.56;34.59;96890.00;4791859;29;20862;-80
2023/06/13 06:10:46;;;;;;;3.17;2.58;;;;;;;22.62;33.41;96879.97;4795131;29;20017;-79
2023/06/13 06:13:12;;;;;;;3.78;3.13;;;;;;;22.56;34.53;96897.97;4799602;29;20578;-79
2023/06/13 06:15:40;;;;;;;3.22;2.92;;;;;;;22.56;34.56;96895.31;4785950;29;20029;-78
2023/06/13 06:18:05;;;;;;;5.22;3.05;;;;;;;22.87;33.83;96896.66;4784916;29;20040;-80
2023/06/13 06:20:31;;;;;;;4.50;3.35;;;;;;;22.87;34.03;96894.03;4798435;29;20041;-80
2023/06/13 06:22:57;;;;;;;3.33;3.00;;;;;;;23.12;33.96;96894.06;4782941;29;20871;-80
2023/06/13 06:25:23;;;;;;;3.28;2.83;;;;;;;22.83;33.45;96895.78;4774828;29;20059;-80
2023/06/13 06:27:51;;;;;;;3.58;2.75;;;;;;;23.31;33.43;96891.59;4777998;29;20044;-79
2023/06/13 06:30:17;;;;;;;3.95;2.90;;;;;;;23.15;32.94;96888.84;4783534;29;20040;-80
2023/06/13 06:32:43;;;;;;;3.30;3.00;;;;;;;23.68;33.10;96896.06;4797502;29;20028;-81
2023/06/13 06:35:14;;;;;;;3.40;2.80;;;;;;;23.88;31.86;96887.16;4784449;29;20037;-80
2023/06/13 06:37:45;;;;;;;3.13;2.80;;;;;;;23.49;31.91;96883.38;4765145;29;20160;-79
2023/06/13 06:40:11;;;;;;;3.92;2.97;;;;;;;23.68;32.21;96885.44;4780607;29;20076;-80
2023/06/13 06:42:36;;;;;;;3.15;2.88;;;;;;;23.85;32.22;96893.16;4780550;29;20213;-80
2023/06/13 06:45:02;;;;;;;4.18;3.47;;;;;;;23.80;31.83;96903.22;4798133;29;21599;-78
2023/06/13 06:47:28;;;;;;;3.58;3.22;;;;;;;24.25;30.45;96899.53;4798494;29;20055;-79
2023/06/13 06:49:54;;;;;;;3.47;3.17;;;;;;;24.43;30.62;96897.34;4784087;29;20382;-80
2023/06/13 06:52:19;;;;;;;3.42;3.13;;;;;;;24.75;29.89;96897.38;4768374;29;20048;-79
2023/06/13 06:54:45;;;;;;;4.32;2.90;;;;;;;24.86;29.63;96895.75;4781278;29;20441;-79
2023/06/13 06:57:11;;;;;;;2.88;2.65;;;;;;;24.84;30.99;96892.66;4759603;29;20026;-80
2023/06/13 06:59:37;;;;;;;3.47;3.10;;;;;;;24.78;29.78;96892.16;4763763;29;20029;-79
2023/06/13 07:02:02;;;;;;;3.10;2.80;;;;;;;24.85;29.92;96894.97;4798815;29;20560;-79
2023/06/13 07:04:28;;;;;;;3.30;2.90;;;;;;;24.70;30.00;96887.75;4798209;29;20033;-78
2023/06/13 07:06:53;;;;;;;5.28;2.90;;;;;;;25.22;30.41;96891.22;4788667;29;20327;-80
2023/06/13 07:09:19;;;;;;;3.85;2.97;;;;;;;25.36;29.87;96883.59;4779486;29;20756;-79
2023/06/13 07:11:45;;;;;;;3.35;3.05;;;;;;;25.37;28.26;96881.69;4807019;29;20045;-82
2023/06/13 07:14:10;;;;;;;4.32;2.80;;;;;;;25.32;28.88;96869.41;4776905;29;20029;-81
2023/06/13 07:16:36;;;;;;;3.22;2.88;;;;;;;25.59;28.88;96874.91;4783478;29;20045;-82
2023/06/13 07:19:01;;;;;;;3.65;2.70;;;;;;;25.62;28.43;96871.56;4781115;29;20128;-80
2023/06/13 07:21:27;;;;;;;4.60;3.53;;;;;;;25.92;28.04;96877.06;4787506;29;20121;-81
2023/06/13 07:23:52;;;;;;;3.78;3.33;;;;;;;25.91;27.69;96872.88;4775854;29;20056;-79
2023/06/13 07:26:18;;;;;;;4.55;3.13;;;;;;;26.16;27.57;96873.34;4765913;29;20833;-79
2023/06/13 07:28:43;;;;;;;3.40;2.97;;;;;;;26.01;28.12;96876.88;4791271;29;20051;-80
2023/06/13 07:31:09;;;;;;;4.82;3.00;;;;;;;26.22;27.71;96878.41;4759570;29;20026;-79
2023/06/13 07:33:35;;;;;;;3.85;3.40;;;;;;;25.84;27.09;96880.75;4760253;29;20036;-80
2023/06/13 07:36:00;;;;;;;3.63;3.33;;;;;;;25.92;27.02;96874.41;4791254;29;20426;-79
2023/06/13 07:38:26;;;;;;;3.65;3.25;;;;;;;26.24;27.41;96871.59;4782502;29;20320;-78
2023/06/13 07:40:52;;;;;;;3.50;3.05;;;;;;;26.39;27.88;96883.31;4795805;29;20348;-78
2023/06/13 07:43:18;;;;;;;3.65;3.35;;;;;;;26.50;26.86;96884.22;4798470;29;20041;-80
2023/06/13 07:45:43;;;;;;;3.17;2.95;;;;;;;26.16;27.23;96880.59;4777111;29;20036;-81
2023/06/13 07:48:09;;;;;;;3.67;3.20;;;;;;;26.00;27.14;96877.25;4768147;29;20109;-79
2023/06/13 07:50:35;;;;;;;4.50;3.70;;;;;;;26.03;27.23;96872.00;4751729;29;20061;-79
2023/06/13 07:53:00;;;;;;;4.13;3.08;;;;;;;26.40;27.13;96878.72;4780975;29;20439;-79
2023/06/13 07:55:26;;;;;;;3.53;3.20;;;;;;;26.56;26.49;96871.34;4791666;29;20834;-79
2023/06/13 07:57:52;;;;;;;4.70;3.10;;;;;;;26.15;26.96;96871.81;4781174;29;20867;-78
2023/06/13 08:00:18;;;;;;;4.32;3.20;;;;;;;26.81;27.48;96866.44;4779208;29;20077;-79
2023/06/13 08:02:44;;;;;;;3.78;3.03;;;;;;;26.71;26.29;96859.81;4800554;29;20736;-79
2023/06/13 08:05:11;;;;;;;2.95;2.72;;;;;;;26.54;26.32;96852.25;4782275;29;20072;-78
2023/06/13 08:07:37;;;;;;;3.85;3.13;;;;;;;26.74;26.66;96863.66;4770657;29;20136;-79
2023/06/13 08:10:02;;;;;;;3.03;2.83;;;;;;;26.86;26.46;96860.78;4781287;29;20029;-79
2023/06/13 08:12:28;;;;;;;5.55;3.10;;;;;;;26.93;25.53;96846.78;4798234;29;20029;-80
2023/06/13 08:14:53;;;;;;;4.10;3.30;;;;;;;26.75;25.79;96853.75;4798313;29;20142;-79
2023/06/13 08:17:19;;;;;;;5.10;3.53;;;;;;;26.51;25.82;96853.75;4796476;29;20032;-79
2023/06/13 08:19:48;;;;;;;6.05;3.20;;;;;;;26.11;25.51;96849.63;4799801;29;20037;-81
2023/06/13 08:22:15;;;;;;;3.67;3.28;;;;;;;26.35;26.08;96848.50;4773943;29;20061;-80
2023/06/13 08:24:40;;;;;;;4.00;3.58;;;;;;;26.19;25.58;96847.88;4765280;29;20040;-80
2023/06/13 08:27:14;;;;;;;5.45;3.20;;;;;;;25.93;26.21;96841.28;4776965;29;20037;-79
2023/06/13 08:29:41;;;;;;;3.95;3.65;;;;;;;26.68;26.02;96841.84;4784479;29;20021;-83
2023/06/13 08:32:07;;;;;;;3.92;3.28;;;;;;;26.37;25.31;96836.72;4793780;29;20029;-80
2023/06/13 08:34:33;;;;;;;3.65;3.35;;;;;;;26.75;25.90;96845.72;4777492;29;20107;-78
2023/06/13 08:36:59;;;;;;;4.50;3.17;;;;;;;26.35;25.46;96845.84;4798889;29;20115;-79
2023/06/13 08:39:24;;;;;;;5.25;3.20;;;;;;;26.32;24.99;96837.78;4768068;29;20065;-81
2023/06/13 08:41:50;;;;;;;4.05;3.65;;;;;;;26.52;25.71;96849.16;4779611;29;20894;-79
2023/06/13 08:44:20;;;;;;;3.60;3.30;;;;;;;26.38;25.47;96849.72;4778358;29;20100;-80
2023/06/13 08:46:46;;;;;;;4.10;3.30;;;;;;;26.30;25.50;96846.16;4779774;29;20115;-79
2023/06/13 08:49:11;;;;;;;3.40;3.10;;;;;;;26.24;25.08;96857.50;4789422;29;20451;-80
2023/06/13 08:51:37;;;;;;;5.50;3.72;;;;;;;26.50;25.65;96857.53;4786143;29;20396;-79
2023/06/13 08:54:04;;;;;;;5.03;3.67;;;;;;;26.83;25.26;96845.47;4769161;29;20033;-80
2023/06/13 08:56:40;;;;;;;7.60;3.88;;;;;;;27.20;25.19;96847.53;4792216;29;20092;-80
2023/06/13 08:59:15;;;;;;;9.63;3.85;;;;;;;27.32;24.68;96843.91;4781855;29;20036;-80
2023/06/13 09:01:44;;;;;;;4.25;3.33;;;;;;;27.70;24.03;96849.31;4769311;29;20065;-80
2023/06/13 09:04:11;;;;;;;4.05;3.55;;;;;;;27.67;23.90;96845.47;4762029;29;20319;-80
2023/06/13 09:06:39;;;;;;;4.85;3.50;;;;;;;27.86;23.78;96843.75;4795070;29;20111;-80
2023/06/13 09:09:09;;;;;;;3.70;3.33;;;;;;;27.74;23.83;96845.53;4766205;29;20033;-80
2023/06/13 09:11:35;;;;;;;4.47;3.55;;;;;;;27.43;23.55;96841.34;4766641;29;20144;-81
2023/06/13 09:14:05;;;;;;;4.32;3.70;;;;;;;27.91;23.82;96848.78;4774217;29;20072;-80
2023/06/13 09:16:31;;;;;;;6.72;4.07;;;;;;;26.63;23.61;96833.34;4780943;29;20037;-80
2023/06/13 09:18:57;;;;;;;3.75;3.30;;;;;;;27.14;24.22;96837.53;4777305;29;20066;-80
2023/06/13 09:21:23;;;;;;;3.70;3.40;;;;;;;27.67;24.32;96829.41;4796819;29;20029;-79
2023/06/13 09:23:49;;;;;;;5.68;3.92;;;;;;;27.97;23.66;96825.94;4795872;29;21196;-80
2023/06/13 09:26:18;;;;;;;3.97;3.65;;;;;;;28.24;22.89;96833.84;4759879;29;21014;-80
2023/06/13 09:28:47;;;;;;;4.28;3.55;;;;;;;27.93;22.95;96833.16;4786521;29;20102;-80
2023/06/13 09:31:13;;;;;;;5.80;3.50;;;;;;;28.14;22.30;96846.75;4785945;29;20116;-81
2023/06/13 09:33:39;;;;;;;5.43;4.53;;;;;;;28.35;22.03;96835.47;4762824;29;20033;-80
2023/06/13 09:36:09;;;;;;;9.82;3.83;;;;;;;28.10;23.11;96829.88;4791681;29;20115;-81
2023/06/13 09:38:37;;;;;;;54.92;8.02;;;;;;;28.36;22.66;96836.22;4784988;29;20109;-79
2023/06/13 09:41:07;;;;;;;4.32;3.55;;;;;;;28.31;22.45;96839.25;4783634;29;20029;-79
2023/06/13 09:43:33;;;;;;;3.85;3.38;;;;;;;28.03;23.06;96835.16;4786910;29;20040;-81
2023/06/13 09:45:58;;;;;;;4.68;4.28;;;;;;;28.17;23.08;96843.34;4781601;29;20886;-79
2023/06/13 09:48:24;;;;;;;3.80;3.50;;;;;;;28.60;23.46;96836.84;4783667;29;20361;-79
2023/06/13 09:50:50;;;;;;;5.85;3.75;;;;;;;28.60;22.85;96829.59;4782523;29;20077;-80
2023/06/13 09:53:16;;;;;;;4.90;3.42;;;;;;;28.71;23.58;96841.13;4762589;29;20085;-81
2023/06/13 09:55:42;;;;;;;4.20;2.92;;;;;;;28.66;21.98;96840.72;4766265;29;20047;-80
2023/06/13 09:58:08;;;;;;;4.15;3.53;;;;;;;28.77;22.22;96823.59;4783735;29;20495;-80
2023/06/13 10:00:34;;;;;;;5.13;4.00;;;;;;;27.94;22.20;96829.34;4763953;29;20573;-80
2023/06/13 10:03:00;;;;;;;4.38;3.88;;;;;;;27.95;22.95;96828.19;4788963;29;20041;-80
2023/06/13 10:05:26;;;;;;;4.18;3.88;;;;;;;28.28;22.74;96829.31;4767165;29;20112;-81
2023/06/13 10:07:52;;;;;;;4.55;4.00;;;;;;;28.91;20.81;96822.91;4780596;29;20183;-79
2023/06/13 10:10:18;;;;;;;4.15;3.75;;;;;;;29.13;22.08;96823.81;4812954;29;20036;-80
2023/06/13 10:12:49;;;;;;;4.18;3.80;;;;;;;28.73;21.98;96830.06;4797424;29;20028;-82
2023/06/13 10:15:22;;;;;;;3.80;3.47;;;;;;;28.84;21.56;96827.44;4770122;29;20038;-80
2023/06/13 10:17:48;;;;;;;4.30;3.90;;;;;;;28.51;22.16;96824.50;4782065;29;20029;-81
2023/06/13 10:20:15;;;;;;;3.75;3.40;;;;;;;28.92;21.68;96816.38;4768529;29;20029;-79
2023/06/13 10:22:40;;;;;;;4.32;3.92;;;;;;;29.39;21.93;96808.63;4773178;29;20034;-80
2023/06/13 10:25:11;;;;;;;4.72;3.75;;;;;;;29.57;20.91;96810.59;4786279;29;20905;-80
2023/06/13 10:27:51;;;;;;;5.18;4.68;;;;;;;29.62;21.16;96808.31;4786388;29;20081;-79
2023/06/13 10:30:48;;;;;;;4.55;4.25;;;;;;;29.50;20.63;96812.09;4777108;29;20036;-80
2023/06/13 10:33:20;;;;;;;4.40;3.92;;;;;;;28.99;21.75;96802.25;4797497;29;20195;-83
2023/06/13 10:36:07;;;;;;;4.00;3.70;;;;;;;29.14;21.37;96806.56;4782733;29;20045;-83
2023/06/13 10:38:57;;;;;;;4.47;4.07;;;;;;;29.22;20.71;96807.41;4783289;29;20029;-81
2023/06/13 10:41:38;;;;;;;4.82;4.03;;;;;;;29.67;21.03;96823.28;4763027;29;20033;-82
2023/06/13 10:44:07;;;;;;;6.38;3.83;;;;;;;29.19;21.10;96826.16;4773658;29;20093;-81
2023/06/13 10:46:34;;;;;;;4.97;3.72;;;;;;;29.43;21.11;96816.69;4768195;29;20056;-82
2023/06/13 10:49:00;;;;;;;4.32;3.95;;;;;;;29.52;21.56;96809.03;4776030;29;20041;-80
2023/06/13 10:51:27;;;;;;;4.80;4.40;;;;;;;29.21;21.43;96819.25;4770124;29;20220;-79
2023/06/13 10:54:02;;;;;;;4.70;4.30;;;;;;;29.93;21.00;96813.41;4798970;29;20033;-81
2023/06/13 10:56:37;;;;;;;4.70;4.30;;;;;;;30.32;20.42;96805.38;4791848;29;20037;-80
2023/06/13 10:59:04;;;;;;;4.05;3.75;;;;;;;30.29;21.63;96795.41;4765258;29;20048;-81
2023/06/13 11:01:34;;;;;;;4.53;4.13;;;;;;;30.43;21.23;96803.50;4789112;29;20091;-80
2023/06/13 11:04:14;;;;;;;4.65;4.25;;;;;;;30.70;20.24;96805.78;4790493;29;20076;-81
2023/06/13 11:06:42;;;;;;;5.93;4.40;;;;;;;30.65;19.92;96786.59;4765274;29;20033;-79
2023/06/13 11:09:21;;;;;;;5.53;4.82;;;;;;;30.13;19.50;96789.66;4785983;29;20025;-80
2023/06/13 11:11:54;;;;;;;4.38;3.97;;;;;;;29.89;19.93;96791.94;4804753;29;20037;-79
2023/06/13 11:14:33;;;;;;;4.53;4.13;;;;;;;29.77;21.80;96801.09;4777552;29;20105;-81
2023/06/13 11:17:01;;;;;;;4.65;4.30;;;;;;;30.28;21.16;96793.88;4769296;29;20135;-80
2023/06/13 11:19:27;;;;;;;4.95;4.45;;;;;;;29.93;19.04;96787.31;4798369;29;20033;-80
2023/06/13 11:21:59;;;;;;;4.35;4.05;;;;;;;29.18;19.42;96787.84;4769108;29;20136;-80
2023/06/13 11:24:29;;;;;;;4.35;4.05;;;;;;;29.26;20.63;96783.28;4790126;29;20055;-82
2023/06/13 11:27:03;;;;;;;4.07;3.75;;;;;;;29.11;20.22;96783.16;4773425;29;20047;-82
2023/06/13 11:29:29;;;;;;;4.57;4.18;;;;;;;29.42;20.49;96780.25;4753373;29;20029;-81
2023/06/13 11:31:55;;;;;;;4.38;4.07;;;;;;;29.83;18.71;96782.69;4780162;29;20044;-81
2023/06/13 11:34:24;;;;;;;4.65;4.25;;;;;;;30.25;19.46;96771.22;4800485;29;20051;-80
2023/06/13 11:36:51;;;;;;;6.60;4.38;;;;;;;29.18;20.00;96785.16;4784763;29;20021;-82